createdAt,value
2023-03-03T00:01:46.850Z,2.25
2023-03-03T00:04:56.418Z,2.19
2023-03-03T00:08:06.840Z,2.16
2023-03-03T00:11:19.642Z,2.11
2023-03-03T00:14:34.682Z,2.08
2023-03-03T00:17:42.749Z,2.05
2023-03-03T00:20:54.702Z,1.99
2023-03-03T00:24:14.713Z,1.97
2023-03-03T00:27:33.418Z,1.97
2023-03-03T00:30:45.907Z,1.95
2023-03-03T00:33:56.132Z,2.05
2023-03-03T00:37:06.384Z,2.16
2023-03-03T00:40:18.046Z,2.08
2023-03-03T00:43:32.756Z,2.05
2023-03-03T00:46:40.551Z,2.05
2023-03-03T00:49:47.748Z,1.89
2023-03-03T00:53:07.372Z,1.85
2023-03-03T00:56:17.574Z,2.02
2023-03-03T00:59:23.068Z,2.23
2023-03-03T01:02:31.206Z,2.00
2023-03-03T01:05:38.259Z,1.90
2023-03-03T01:08:53.425Z,1.78
2023-03-03T01:12:02.760Z,1.70
2023-03-03T01:15:17.328Z,1.64
2023-03-03T01:18:23.115Z,1.59
2023-03-03T01:21:29.922Z,1.62
2023-03-03T01:24:36.941Z,1.73
2023-03-03T01:27:47.792Z,1.70
2023-03-03T01:30:57.114Z,1.58
2023-03-03T01:34:07.312Z,1.45
2023-03-03T01:37:17.897Z,1.40
2023-03-03T01:40:28.134Z,1.34
2023-03-03T01:43:36.758Z,1.25
2023-03-03T01:47:01.476Z,1.20
2023-03-03T01:50:13.587Z,1.27
2023-03-03T01:53:27.372Z,1.43
2023-03-03T01:56:41.032Z,1.24
2023-03-03T01:59:51.669Z,1.18
2023-03-03T02:03:03.344Z,1.22
2023-03-03T02:06:14.998Z,1.24
2023-03-03T02:09:34.939Z,1.31
2023-03-03T02:12:55.648Z,1.29
2023-03-03T02:16:09.993Z,1.26
2023-03-03T02:19:39.637Z,1.26
2023-03-03T02:22:54.927Z,1.27
2023-03-03T02:26:08.197Z,1.25
2023-03-03T02:29:17.604Z,1.23
2023-03-03T02:32:29.261Z,1.21
2023-03-03T02:35:42.151Z,1.19
2023-03-03T02:39:12.658Z,1.18
2023-03-03T02:42:26.960Z,1.22
2023-03-03T02:45:35.658Z,1.24
2023-03-03T02:48:47.263Z,1.21
2023-03-03T02:52:05.124Z,1.14
2023-03-03T02:55:13.867Z,1.10
2023-03-03T02:58:19.768Z,1.09
2023-03-03T03:01:28.310Z,1.12
2023-03-03T03:04:38.720Z,1.10
2023-03-03T03:07:48.476Z,1.03
2023-03-03T03:10:59.339Z,1.08
2023-03-03T03:14:11.361Z,1.06
2023-03-03T03:17:19.630Z,1.11
2023-03-03T03:20:31.703Z,1.34
2023-03-03T03:23:40.135Z,1.46
2023-03-03T03:26:49.134Z,1.65
2023-03-03T03:29:57.203Z,1.63
2023-03-03T03:33:05.055Z,1.68
2023-03-03T03:36:13.269Z,1.77
2023-03-03T03:39:19.656Z,1.76
2023-03-03T03:42:29.652Z,1.81
2023-03-03T03:45:37.276Z,1.89
2023-03-03T03:48:47.155Z,1.90
2023-03-03T03:52:03.619Z,1.89
2023-03-03T03:55:12.787Z,1.84
2023-03-03T03:58:21.236Z,1.84
2023-03-03T04:01:30.228Z,1.81
2023-03-03T04:04:40.846Z,1.79
2023-03-03T04:07:50.405Z,1.71
2023-03-03T04:11:00.595Z,1.75
2023-03-03T04:14:09.519Z,1.81
2023-03-03T04:17:18.328Z,1.77
2023-03-03T04:20:25.806Z,1.77
2023-03-03T04:23:34.859Z,1.73
2023-03-03T04:26:42.802Z,1.72
2023-03-03T04:29:50.913Z,1.82
2023-03-03T04:33:00.978Z,1.80
2023-03-03T04:36:11.814Z,1.71
2023-03-03T04:39:22.485Z,1.72
2023-03-03T04:42:30.422Z,1.56
2023-03-03T04:45:37.121Z,1.63
2023-03-03T04:48:47.465Z,1.61
2023-03-03T04:51:57.421Z,1.43
2023-03-03T04:55:07.437Z,1.43
2023-03-03T04:58:17.258Z,1.47
2023-03-03T05:01:23.872Z,1.45
2023-03-03T05:04:35.347Z,1.41
2023-03-03T05:07:43.421Z,1.40
2023-03-03T05:10:59.486Z,1.41
2023-03-03T05:14:09.270Z,1.51
2023-03-03T05:17:20.898Z,1.62
2023-03-03T05:20:28.791Z,1.58
2023-03-03T05:23:34.808Z,1.50
2023-03-03T05:26:41.130Z,1.48
2023-03-03T05:29:50.860Z,1.54
2023-03-03T05:32:56.492Z,1.43
2023-03-03T05:36:02.132Z,1.50
2023-03-03T05:39:12.807Z,1.49
2023-03-03T05:42:21.268Z,1.43
2023-03-03T05:45:29.360Z,1.47
2023-03-03T05:48:36.531Z,1.50
2023-03-03T05:51:48.992Z,1.49
2023-03-03T05:54:55.017Z,1.63
2023-03-03T05:58:01.371Z,1.54
2023-03-03T06:01:06.309Z,1.62
2023-03-03T06:04:13.905Z,1.70
2023-03-03T06:07:18.434Z,1.74
2023-03-03T06:10:23.713Z,1.79
2023-03-03T06:13:31.154Z,1.91
2023-03-03T06:16:36.559Z,2.05
2023-03-03T06:19:42.725Z,2.19
2023-03-03T06:22:49.145Z,2.29
2023-03-03T06:25:53.992Z,2.05
2023-03-03T06:28:58.336Z,1.93
2023-03-03T06:32:05.441Z,1.90
2023-03-03T06:35:10.445Z,1.92
2023-03-03T06:38:14.886Z,2.23
2023-03-03T06:41:19.768Z,2.34
2023-03-03T06:44:24.365Z,2.42
2023-03-03T06:47:29.632Z,2.57
2023-03-03T06:50:33.451Z,2.53
2023-03-03T06:53:36.950Z,2.58
2023-03-03T06:56:41.447Z,2.56
2023-03-03T06:59:45.574Z,2.60
2023-03-03T07:02:54.548Z,2.73
2023-03-03T07:06:00.168Z,2.96
2023-03-03T07:09:10.510Z,3.08
2023-03-03T07:12:23.014Z,3.10
2023-03-03T07:15:35.728Z,3.15
2023-03-03T07:18:43.181Z,3.59
2023-03-03T07:21:47.610Z,3.62
2023-03-03T07:24:56.551Z,3.94
2023-03-03T07:28:17.723Z,4.01
2023-03-03T07:31:31.436Z,3.85
2023-03-03T07:34:41.150Z,3.94
2023-03-03T07:37:46.833Z,4.03
2023-03-03T07:40:56.710Z,4.38
2023-03-03T07:44:14.105Z,4.40
2023-03-03T07:47:21.272Z,4.48
2023-03-03T07:50:26.389Z,4.84
2023-03-03T07:53:35.928Z,5.11
2023-03-03T07:56:43.390Z,5.21
2023-03-03T07:59:49.967Z,5.40
2023-03-03T08:03:04.075Z,5.14
2023-03-03T08:06:31.068Z,4.90
2023-03-03T08:09:48.998Z,4.86
2023-03-03T08:12:54.556Z,5.03
2023-03-03T08:16:04.917Z,5.26
2023-03-03T08:19:12.456Z,5.24
2023-03-03T08:22:19.039Z,5.55
2023-03-03T08:25:25.887Z,5.67
2023-03-03T08:28:29.944Z,6.02
2023-03-03T08:31:41.335Z,5.82
2023-03-03T08:34:46.607Z,5.93
2023-03-03T08:37:51.527Z,6.33
2023-03-03T08:40:54.803Z,6.85
2023-03-03T08:43:59.181Z,7.34
2023-03-03T08:47:03.104Z,7.83
2023-03-03T08:50:07.603Z,8.24
2023-03-03T08:53:15.237Z,8.83
2023-03-03T08:56:20.152Z,9.08
2023-03-03T08:59:24.270Z,9.06
2023-03-03T09:02:28.849Z,9.01
2023-03-03T09:05:35.009Z,9.40
2023-03-03T09:08:39.467Z,8.94
2023-03-03T09:11:45.366Z,8.10
2023-03-03T09:14:53.697Z,8.42
2023-03-03T09:18:02.042Z,8.90
2023-03-03T09:21:27.234Z,8.98
2023-03-03T09:24:32.151Z,9.29
2023-03-03T09:27:38.149Z,9.44
2023-03-03T09:30:48.331Z,9.20
2023-03-03T09:33:58.114Z,9.40
2023-03-03T09:37:24.270Z,9.14
2023-03-03T09:40:47.688Z,9.29
2023-03-03T09:44:10.405Z,9.38
2023-03-03T09:47:34.922Z,9.12
2023-03-03T09:51:00.343Z,9.21
2023-03-03T09:54:24.411Z,9.18
2023-03-03T09:57:31.892Z,9.34
2023-03-03T10:01:08.904Z,9.43
2023-03-03T10:04:41.256Z,9.74
2023-03-03T10:07:57.112Z,9.85
2023-03-03T10:11:14.085Z,10.07
2023-03-03T10:14:37.115Z,9.99
2023-03-03T10:17:48.593Z,9.96
2023-03-03T10:21:05.780Z,10.14
2023-03-03T10:24:21.645Z,10.14
2023-03-03T10:27:25.303Z,10.03
2023-03-03T10:30:42.685Z,10.04
2023-03-03T10:34:05.260Z,10.03
2023-03-03T10:37:21.451Z,9.98
2023-03-03T10:40:28.726Z,9.98
2023-03-03T10:43:41.156Z,10.14
2023-03-03T10:47:05.273Z,10.13
2023-03-03T10:50:21.552Z,10.20
2023-03-03T10:53:43.611Z,9.98
2023-03-03T10:56:53.570Z,10.21
2023-03-03T11:00:15.425Z,10.17
2023-03-03T11:03:31.242Z,10.28
2023-03-03T11:06:42.318Z,10.54
2023-03-03T11:09:46.702Z,10.81
2023-03-03T11:13:10.162Z,11.15
2023-03-03T11:16:26.697Z,11.48
2023-03-03T11:19:49.402Z,11.89
2023-03-03T11:23:11.480Z,12.94
2023-03-03T11:26:18.927Z,16.28
2023-03-03T11:29:29.994Z,19.12
2023-03-03T11:32:41.088Z,18.82
2023-03-03T11:35:48.604Z,17.43
2023-03-03T11:38:58.713Z,19.64
2023-03-03T11:42:23.792Z,20.34
2023-03-03T11:45:34.979Z,20.26
2023-03-03T11:48:44.597Z,18.56
2023-03-03T11:51:57.085Z,17.26
2023-03-03T11:55:08.791Z,15.62
2023-03-03T11:58:12.964Z,15.79
2023-03-03T12:01:23.770Z,15.08
2023-03-03T12:04:31.529Z,14.59
2023-03-03T12:07:53.944Z,14.20
2023-03-03T12:11:01.300Z,13.63
2023-03-03T12:14:05.467Z,13.83
2023-03-03T12:17:25.350Z,13.90
2023-03-03T12:20:37.500Z,17.16
2023-03-03T12:23:44.972Z,20.96
2023-03-03T12:26:54.961Z,18.58
2023-03-03T12:30:11.684Z,19.49
2023-03-03T12:33:23.032Z,18.84
2023-03-03T12:36:44.785Z,20.67
2023-03-03T12:40:13.184Z,20.41
2023-03-03T12:43:36.455Z,18.89
2023-03-03T12:46:46.289Z,19.44
2023-03-03T12:50:01.229Z,17.98
2023-03-03T12:53:24.757Z,17.21
2023-03-03T12:56:35.300Z,15.57
2023-03-03T13:00:15.973Z,14.51
2023-03-03T13:03:54.986Z,14.69
2023-03-03T13:07:02.812Z,16.05
2023-03-03T13:10:07.539Z,15.22
2023-03-03T13:13:17.856Z,15.07
2023-03-03T13:16:38.929Z,15.93
2023-03-03T13:19:57.763Z,17.47
2023-03-03T13:23:09.491Z,17.03
2023-03-03T13:26:17.494Z,16.87
2023-03-03T13:29:26.311Z,16.47
2023-03-03T13:32:43.395Z,16.28
2023-03-03T13:36:06.161Z,15.25
2023-03-03T13:39:18.488Z,14.41
2023-03-03T13:42:23.093Z,13.84
2023-03-03T13:45:33.363Z,13.54
2023-03-03T13:48:52.850Z,13.83
2023-03-03T13:51:59.287Z,14.10
2023-03-03T13:55:06.797Z,14.42
2023-03-03T13:58:25.258Z,14.96
2023-03-03T14:01:53.856Z,14.81
2023-03-03T14:05:04.887Z,14.35
2023-03-03T14:08:14.253Z,14.03
2023-03-03T14:11:39.766Z,13.56
2023-03-03T14:14:46.280Z,13.21
2023-03-03T14:18:24.469Z,13.34
2023-03-03T14:21:39.705Z,13.12
2023-03-03T14:25:04.754Z,13.02
2023-03-03T14:28:14.333Z,12.48
2023-03-03T14:31:24.648Z,12.58
2023-03-03T14:34:29.512Z,12.29
2023-03-03T14:37:44.260Z,12.29
2023-03-03T14:40:50.134Z,12.16
2023-03-03T14:44:01.339Z,12.04
2023-03-03T14:47:14.521Z,12.12
2023-03-03T14:50:34.269Z,12.10
2023-03-03T14:53:40.160Z,12.09
2023-03-03T14:57:00.489Z,11.79
2023-03-03T15:00:12.844Z,11.60
2023-03-03T15:03:27.228Z,11.20
2023-03-03T15:06:35.568Z,10.69
2023-03-03T15:09:50.873Z,10.79
2023-03-03T15:12:56.336Z,10.85
2023-03-03T15:16:03.182Z,10.80
2023-03-03T15:19:19.999Z,10.80
2023-03-03T15:22:48.198Z,10.84
2023-03-03T15:26:00.640Z,10.72
2023-03-03T15:29:23.802Z,10.58
2023-03-03T15:32:31.210Z,10.48
2023-03-03T15:35:46.547Z,10.38
2023-03-03T15:38:57.251Z,10.22
2023-03-03T15:42:08.602Z,10.13
2023-03-03T15:45:17.755Z,10.03
2023-03-03T15:48:41.851Z,9.95
2023-03-03T15:52:02.892Z,9.90
2023-03-03T15:55:17.117Z,9.83
2023-03-03T15:58:24.730Z,9.75
2023-03-03T16:01:33.362Z,9.73
2023-03-03T16:04:46.614Z,9.58
2023-03-03T16:08:00.944Z,9.44
2023-03-03T16:11:17.623Z,9.39
2023-03-03T16:14:40.219Z,9.23
2023-03-03T16:17:55.717Z,9.20
2023-03-03T16:21:27.872Z,9.06
2023-03-03T16:24:36.364Z,8.87
2023-03-03T16:28:01.239Z,8.76
2023-03-03T16:31:13.054Z,8.80
2023-03-03T16:34:22.731Z,8.82
2023-03-03T16:37:59.743Z,8.80
2023-03-03T16:41:07.431Z,8.71
2023-03-03T16:44:15.425Z,8.44
2023-03-03T16:47:20.901Z,8.37
2023-03-03T16:50:30.418Z,8.44
2023-03-03T16:53:50.556Z,8.17
2023-03-03T16:57:03.313Z,7.99
2023-03-03T17:00:12.308Z,7.65
2023-03-03T17:03:21.726Z,7.66
2023-03-03T17:06:38.352Z,7.47
2023-03-03T17:10:00.981Z,7.42
2023-03-03T17:13:18.478Z,7.18
2023-03-03T17:16:39.858Z,7.29
2023-03-03T17:20:04.781Z,7.40
2023-03-03T17:23:26.991Z,7.21
2023-03-03T17:26:49.299Z,7.05
2023-03-03T17:30:00.570Z,6.76
2023-03-03T17:33:16.838Z,6.71
2023-03-03T17:36:29.472Z,7.16
2023-03-03T17:40:00.051Z,7.03
2023-03-03T17:43:17.741Z,6.98
2023-03-03T17:46:45.780Z,6.96
2023-03-03T17:49:52.392Z,7.28
2023-03-03T17:53:05.869Z,7.35
2023-03-03T17:56:29.681Z,7.26
2023-03-03T17:59:49.706Z,7.14
2023-03-03T18:03:13.973Z,6.96
2023-03-03T18:06:28.028Z,6.79
2023-03-03T18:09:53.657Z,6.98
2023-03-03T18:13:07.372Z,7.11
2023-03-03T18:16:22.761Z,7.16
2023-03-03T18:19:39.900Z,7.08
2023-03-03T18:22:47.495Z,7.02
2023-03-03T18:26:05.179Z,6.84
2023-03-03T18:29:20.535Z,6.83
2023-03-03T18:32:42.070Z,7.12
2023-03-03T18:35:51.893Z,7.03
2023-03-03T18:39:04.442Z,7.28
2023-03-03T18:42:11.717Z,7.59
2023-03-03T18:45:21.404Z,7.75
2023-03-03T18:48:47.044Z,7.81
2023-03-03T18:52:18.769Z,8.02
2023-03-03T18:55:26.028Z,7.95
2023-03-03T18:58:36.249Z,7.68
2023-03-03T19:01:46.353Z,7.58
2023-03-03T19:04:56.544Z,7.54
2023-03-03T19:08:21.412Z,7.59
2023-03-03T19:11:35.505Z,7.49
2023-03-03T19:14:47.110Z,7.50
2023-03-03T19:17:59.293Z,7.28
2023-03-03T19:21:20.893Z,7.10
2023-03-03T19:24:28.973Z,6.90
2023-03-03T19:27:59.267Z,7.02
2023-03-03T19:31:05.991Z,6.92
2023-03-03T19:34:20.839Z,7.01
2023-03-03T19:37:31.666Z,6.98
2023-03-03T19:40:47.170Z,6.98
2023-03-03T19:44:07.990Z,6.67
2023-03-03T19:47:24.860Z,6.74
2023-03-03T19:50:38.863Z,6.46
2023-03-03T19:54:07.206Z,6.29
2023-03-03T19:57:21.884Z,6.04
2023-03-03T20:00:33.317Z,5.86
2023-03-03T20:03:44.216Z,5.62
2023-03-03T20:06:56.686Z,5.68
2023-03-03T20:10:22.959Z,5.58
2023-03-03T20:13:42.114Z,5.51
2023-03-03T20:16:58.182Z,5.62
2023-03-03T20:20:05.757Z,5.57
2023-03-03T20:23:28.898Z,5.61
2023-03-03T20:26:46.142Z,5.48
2023-03-03T20:30:16.468Z,5.51
2023-03-03T20:33:41.060Z,5.51
2023-03-03T20:36:52.748Z,5.38
2023-03-03T20:40:08.523Z,5.24
2023-03-03T20:43:18.852Z,5.08
2023-03-03T20:46:35.418Z,4.90
2023-03-03T20:50:08.022Z,4.70
2023-03-03T20:53:24.879Z,4.59
2023-03-03T20:56:51.514Z,4.45
2023-03-03T21:00:04.334Z,4.43
2023-03-03T21:03:28.518Z,4.26
2023-03-03T21:06:42.952Z,4.12
2023-03-03T21:09:56.955Z,4.01
2023-03-03T21:13:21.786Z,3.96
2023-03-03T21:16:31.667Z,3.94
2023-03-03T21:19:38.349Z,3.94
2023-03-03T21:22:46.336Z,3.85
2023-03-03T21:25:56.081Z,3.76
2023-03-03T21:29:04.902Z,3.69
2023-03-03T21:32:14.048Z,3.60
2023-03-03T21:35:24.920Z,3.53
2023-03-03T21:38:34.159Z,3.66
2023-03-03T21:41:55.728Z,3.57
2023-03-03T21:45:10.593Z,3.75
2023-03-03T21:48:18.954Z,3.60
2023-03-03T21:51:27.076Z,3.44
2023-03-03T21:54:33.570Z,3.37
2023-03-03T21:57:39.821Z,3.45
2023-03-03T22:00:47.383Z,3.31
2023-03-03T22:03:53.638Z,3.16
2023-03-03T22:07:02.806Z,3.07
2023-03-03T22:10:11.716Z,3.07
2023-03-03T22:13:20.755Z,2.93
2023-03-03T22:16:26.514Z,2.82
2023-03-03T22:19:36.884Z,2.75
2023-03-03T22:22:44.563Z,2.69
2023-03-03T22:25:53.669Z,2.61
2023-03-03T22:29:02.665Z,2.62
2023-03-03T22:32:12.148Z,2.63
2023-03-03T22:35:19.315Z,2.62
2023-03-03T22:38:25.626Z,2.49
2023-03-03T22:41:30.939Z,2.44
2023-03-03T22:44:38.153Z,2.38
2023-03-03T22:47:43.958Z,2.30
2023-03-03T22:50:48.164Z,2.26
2023-03-03T22:53:57.993Z,2.21
2023-03-03T22:57:05.968Z,2.14
2023-03-03T23:00:13.670Z,2.09
2023-03-03T23:03:21.504Z,2.07
2023-03-03T23:06:27.703Z,2.02
2023-03-03T23:09:36.534Z,1.95
2023-03-03T23:12:42.097Z,1.90
2023-03-03T23:15:46.994Z,1.82
2023-03-03T23:18:54.083Z,1.78
2023-03-03T23:22:01.864Z,1.74
2023-03-03T23:25:07.071Z,1.70
2023-03-03T23:28:11.039Z,1.66
2023-03-03T23:31:16.425Z,1.66
2023-03-03T23:34:20.264Z,1.67
2023-03-03T23:37:30.076Z,1.62
2023-03-03T23:40:36.276Z,1.57
2023-03-03T23:43:44.190Z,1.51
2023-03-03T23:46:49.843Z,1.49
2023-03-03T23:49:59.979Z,1.45
2023-03-03T23:53:08.332Z,1.46
2023-03-03T23:56:16.556Z,1.41
2023-03-03T23:59:21.688Z,1.35
